Stovring, Denmark
Current Conditions -  °F | °C
As of 8:20 AM on Thursday 18 Dec 2014 (Local Time) from EKYT Reporting Station
Broken Clouds Broken Clouds  
Wind Chill: 37°   Ceiling: 5500
Heat Index: 43°   Visibility: 6mi
Dew Point: 43°   Wind: 9mph
Humidity: 100%   Direction: 220°SW
Pressure: 29.44"   Gusts: NA
Location:  56.89°N, 9.84°E
Report Text: EKYT 180720Z 22008KT 9999 FEW010 BKN055 06/06 Q0997
Loading
Personal Weather Stations






























Interactive Weather Map New forecast layout! Learn more

10-Day Weather Forecast

Advertisements
Track Severe Weather on mobile